PWSweather.com
Personal Weather Stations
Station Observations
MFGBD
Tower Mfg , BavendorfDE

Tower Mfg BavendorfDE

Lat: 47.752282, Lon: 9.549614

Elevation: 1525

Station Type: Wounder Weather Station

Latest ConditionsUpdated 9:33:51 AM GMT+01:01 Thursday, Dec 12, 2019
Currently Today's Max Today's Min Today's Average
Temperature 33.9°F1.1°C 35.2°F1.8°C 33.4°F0.8°C 34.2°F1.2°C
Dew Point 33.9°F1.1°C 35.2°F1.8°C 33.4°F0.8°C 34.2°F1.2°C
Winds 6.7 mph SSW10.8 kmh SSW 7.6 mph -12.2 kmh - - 2.5 mph 4.0 kmh
Wind Gusts 10.3 mph16.6 kmh 10.3 mph16.6 kmh - -
Humidity 100% 100% 100% 100%
Pressure 29.67 in1004.7 mb 29.71 in1006.1 mb 29.65 in1004.1 mb -
Precipitation - 0.04 in1.0 mm - -
Hour Temp Dew Point Humidity Winds Wind Gusts Pressure Precip Precip Rate Daily Precip Total
09:33 AM 33.9°F1.1°C 33.9°F1.1°C 100% 6.7 mph SSW10.8 kmh SSW 10.3 mph16.6 kmh 29.67 in1004.7 mb 0.02 in0.5 mm 0.02 in0.5 mm 0.04 in1.0 mm
09:03 AM 34.3°F1.3°C 34.3°F1.3°C 100% 7.6 mph SSW12.2 kmh SSW 9.3 mph15.0 kmh 29.67 in1004.7 mb 0.01 in0.3 mm 0.00 in0.0 mm 0.03 in0.8 mm
08:51 AM 34.3°F1.3°C 34.3°F1.3°C 100% 5.6 mph SSW9.0 kmh SSW 8.1 mph13.0 kmh 29.67 in1004.7 mb 0.01 in0.3 mm 0.00 in0.0 mm 0.03 in0.8 mm
08:21 AM 34.3°F1.3°C 34.3°F1.3°C 100% 4.7 mph SSW7.6 kmh SSW 7.5 mph12.1 kmh 29.66 in1004.4 mb 0.01 in0.3 mm 0.02 in0.5 mm 0.02 in0.5 mm
07:51 AM 34.7°F1.5°C 34.7°F1.5°C 100% 6.6 mph SW10.6 kmh SW 10.3 mph16.6 kmh 29.66 in1004.4 mb 0.00 in0.0 mm 0.00 in0.0 mm 0.01 in0.3 mm
07:21 AM 35.0°F1.7°C 35.0°F1.7°C 100% 4.2 mph SSW6.8 kmh SSW 8.4 mph13.5 kmh 29.66 in1004.4 mb 0.00 in0.0 mm 0.00 in0.0 mm 0.00 in0.0 mm
06:51 AM 35.2°F1.8°C 35.2°F1.8°C 100% 3.0 mph S4.8 kmh S 7.1 mph11.4 kmh 29.66 in1004.4 mb 0.00 in0.0 mm 0.00 in0.0 mm 0.00 in0.0 mm
06:21 AM 35.0°F1.7°C 35.0°F1.7°C 100% 4.5 mph S7.2 kmh S 6.5 mph10.5 kmh 29.65 in1004.1 mb 0.00 in0.0 mm 0.00 in0.0 mm 0.00 in0.0 mm
05:51 AM 34.5°F1.4°C 34.5°F1.4°C 100% 1.5 mph S2.4 kmh S 3.1 mph5.0 kmh 29.65 in1004.1 mb 0.00 in0.0 mm 0.00 in0.0 mm 0.00 in0.0 mm
05:21 AM 34.7°F1.5°C 34.7°F1.5°C 100% 1.5 mph S2.4 kmh S 5.3 mph8.5 kmh 29.65 in1004.1 mb 0.00 in0.0 mm 0.00 in0.0 mm 0.00 in0.0 mm
04:51 AM 33.6°F0.9°C 33.6°F0.9°C 100% Calm Calm 4.0 mph6.4 kmh 29.65 in1004.1 mb 0.00 in0.0 mm 0.00 in0.0 mm 0.00 in0.0 mm
04:21 AM 34.1°F1.2°C 34.1°F1.2°C 100% 2.1 mph S3.4 kmh S 4.0 mph6.4 kmh 29.65 in1004.1 mb 0.00 in0.0 mm 0.00 in0.0 mm 0.00 in0.0 mm
03:51 AM 33.6°F0.9°C 33.6°F0.9°C 100% 1.1 mph S1.8 kmh S 1.2 mph1.9 kmh 29.66 in1004.4 mb 0.00 in0.0 mm 0.00 in0.0 mm 0.00 in0.0 mm
03:21 AM 33.6°F0.9°C 33.6°F0.9°C 100% Calm Calm -- 29.66 in1004.4 mb 0.00 in0.0 mm 0.00 in0.0 mm 0.00 in0.0 mm
02:51 AM 33.4°F0.8°C 33.4°F0.8°C 100% Calm Calm -- 29.67 in1004.7 mb 0.00 in0.0 mm 0.00 in0.0 mm 0.00 in0.0 mm
02:21 AM 33.8°F1.0°C 33.8°F1.0°C 100% Calm Calm -- 29.68 in1005.1 mb 0.00 in0.0 mm 0.00 in0.0 mm 0.00 in0.0 mm
01:51 AM 33.9°F1.1°C 33.9°F1.1°C 100% Calm Calm -- 29.69 in1005.4 mb 0.00 in0.0 mm 0.00 in0.0 mm 0.06 in1.5 mm
01:21 AM 33.9°F1.1°C 33.9°F1.1°C 100% Calm Calm -- 29.69 in1005.4 mb 0.00 in0.0 mm 0.00 in0.0 mm 0.06 in1.5 mm
12:51 AM 34.5°F1.4°C 34.5°F1.4°C 100% Calm Calm -- 29.70 in1005.8 mb 0.00 in0.0 mm 0.00 in0.0 mm 0.06 in1.5 mm
12:21 AM 34.5°F1.4°C 34.5°F1.4°C 100% Calm Calm -- 29.71 in1006.1 mb 0.00 in0.0 mm 0.00 in0.0 mm 0.06 in1.5 mm